Wauconda, Illinois
Current Conditions -  °F | °C
As of 11:52 AM on Thursday 23 Oct 2014 (Local Time) from KPWK Reporting Station
Clear Clear  
Wind Chill: 58°   Ceiling: Unl
Heat Index: 58°   Visibility: 10mi
Dew Point: 41°   Wind: 14mph
Humidity: 53%   Direction: 200°SSW
Pressure: 30.19"   Gusts: NA
Location:  42.26°N, 88.14°W
Report Text: KPWK 231652Z 20012KT 10SM CLR 14/05 A3019 RMK AO2 SLP227 T01440050
Loading
Personal Weather Stations






























Interactive Weather Map
Tropical Storm Tracking
New forecast layout! Learn more

10-Day Weather Forecast

Advertisements
Track Severe Weather on mobile